»·PEaware :: ASA505 KSNA-KSEA

ASA505 :: KSNA-KSEA

FLIGHT INFORMATION

Flight Status: Arrived
Operator:
Alaska Airlines
More flights by this operator :: More flights under this callsign
Pilot: Teofilo H. (11827)
Aircraft: BOEING 737-800
(B738)
More flights by this aircraft type
Origin: KSNA John Wayne-Orange Co
United States
Destination: KSEA Seattle-Tacoma Intl
United States
More flights between these airports :: More routes between these airports
Route: +HHERO2 EHF SHIMR LKV BTG HAWKZ6
File this flight plan on PilotEdge
Remarks:
Altitude:
(Current/Filed)
36,000ft
Speed:
(Current/Filed)
450kts
Departed: 06-Jan-18 07:52 PM
Arrived: 06-Jan-18 10:22 PM
Distance/Time
Traveled:
850nm/2:30
Distance/Time
To Go:
Arrived

Flight Plot

Page will automatically refresh every two minutes.

Flight plan parsing failed; only flown route is shown


Map Options




Map Legend


Flown Route
Filed Route
Departure Airport
Arrival Airport
Navaid (VOR, NDB)
Fix

Horizontal Profiles

Position Reports

Time Latitude Longitude Heading Altitude Ground
Speed
06-Jan-18 19:24 33.678322 -117.863046 118 43ft 0kts
06-Jan-18 19:25 33.678322 -117.863046 118 43ft 0kts
06-Jan-18 19:26 33.678322 -117.863046 118 43ft 0kts
06-Jan-18 19:27 33.678322 -117.863046 118 43ft 0kts
06-Jan-18 19:28 33.678322 -117.863046 118 43ft 0kts
06-Jan-18 19:29 33.678322 -117.863046 118 43ft 0kts
06-Jan-18 19:30 33.678322 -117.863046 118 43ft 0kts
06-Jan-18 19:31 33.678322 -117.863046 118 43ft 0kts
06-Jan-18 19:32 33.678322 -117.863046 118 43ft 0kts
06-Jan-18 19:33 33.678322 -117.863046 118 43ft 0kts
06-Jan-18 19:34 33.678322 -117.863046 118 43ft 0kts
06-Jan-18 19:35 33.678322 -117.863046 118 43ft 0kts
06-Jan-18 19:36 33.678322 -117.863046 118 43ft 0kts
06-Jan-18 19:37 33.678322 -117.863046 118 43ft 0kts
06-Jan-18 19:38 33.678322 -117.863046 118 43ft 0kts
06-Jan-18 19:39 33.678322 -117.863046 118 43ft 0kts
06-Jan-18 19:40 33.678322 -117.863046 118 43ft 0kts
06-Jan-18 19:41 33.678322 -117.863046 118 43ft 0kts
06-Jan-18 19:42 33.678322 -117.863046 118 43ft 0kts
06-Jan-18 19:43 33.678322 -117.863046 118 43ft 0kts
06-Jan-18 19:44 33.678322 -117.863046 118 43ft 0kts
06-Jan-18 19:45 33.678322 -117.863046 118 43ft 0kts
06-Jan-18 19:46 33.678322 -117.863046 118 43ft 0kts
06-Jan-18 19:47 33.678467 -117.863374 107 44ft 2kts
06-Jan-18 19:48 33.678272 -117.863850 26 44ft 1kts
06-Jan-18 19:49 33.678259 -117.863857 27 44ft 0kts
06-Jan-18 19:50 33.678260 -117.863857 27 44ft 0kts
06-Jan-18 19:51 33.678270 -117.863851 27 44ft 0kts
06-Jan-18 19:52 33.679727 -117.862933 27 43ft 10kts
06-Jan-18 19:53 33.680570 -117.862943 303 43ft 0kts
06-Jan-18 19:54 33.680832 -117.863489 297 44ft 8kts
06-Jan-18 19:55 33.681118 -117.864149 296 44ft 0kts
06-Jan-18 19:56 33.681118 -117.864149 296 44ft 0kts
06-Jan-18 19:57 33.681378 -117.864937 264 44ft 10kts
06-Jan-18 19:58 33.657983 -117.880158 209 1005ft 167kts
06-Jan-18 19:59 33.604150 -117.893772 188 2668ft 239kts
06-Jan-18 20:00 33.543200 -117.929141 224 5713ft 271kts
06-Jan-18 20:01 33.487880 -117.993426 225 8140ft 288kts
06-Jan-18 20:02 33.449203 -118.065237 244 10876ft 297kts
06-Jan-18 20:03 33.414437 -118.150233 266 14086ft 303kts
06-Jan-18 20:04 33.429846 -118.249938 283 17185ft 315kts
06-Jan-18 20:05 33.459714 -118.347801 297 20074ft 327kts
06-Jan-18 20:06 33.504906 -118.444513 309 22699ft 343kts
06-Jan-18 20:07 33.590349 -118.477772 358 23194ft 376kts
06-Jan-18 20:08 33.693322 -118.464570 0 23152ft 377kts
06-Jan-18 20:09 33.796961 -118.459177 353 24639ft 384kts
06-Jan-18 20:10 33.904626 -118.459649 353 26546ft 402kts
06-Jan-18 20:11 34.015751 -118.461083 346 28264ft 413kts
06-Jan-18 20:12 34.111375 -118.476452 345 29651ft 425kts
06-Jan-18 20:13 34.228229 -118.494731 344 31246ft 437kts
06-Jan-18 20:14 34.346936 -118.513107 343 33071ft 438kts
06-Jan-18 20:15 34.467045 -118.531746 342 34824ft 435kts
06-Jan-18 20:16 34.586246 -118.550269 342 36170ft 437kts
06-Jan-18 20:17 34.708552 -118.569246 340 36173ft 453kts
06-Jan-18 20:18 34.832208 -118.588414 340 36185ft 452kts
06-Jan-18 20:19 34.956317 -118.607664 340 36201ft 453kts
06-Jan-18 20:20 35.054220 -118.661424 310 36225ft 404kts
06-Jan-18 20:21 35.117275 -118.723516 308 36212ft 401kts
06-Jan-18 20:22 35.202515 -118.810005 308 36212ft 402kts
06-Jan-18 20:23 35.288199 -118.897308 308 36184ft 402kts
06-Jan-18 20:24 35.374010 -118.984696 308 36945ft 402kts
06-Jan-18 20:25 35.458890 -119.071084 307 38108ft 396kts
06-Jan-18 20:26 35.565690 -119.126896 330 38180ft 438kts
06-Jan-18 20:27 35.680561 -119.167849 330 38206ft 437kts
06-Jan-18 20:28 35.798207 -119.210582 330 38208ft 437kts
06-Jan-18 20:29 35.913991 -119.252724 330 38208ft 438kts
06-Jan-18 20:30 36.030860 -119.295266 330 38208ft 439kts
06-Jan-18 20:31 36.126164 -119.329956 330 38199ft 440kts
06-Jan-18 20:32 36.243206 -119.372643 333 38183ft 445kts
06-Jan-18 20:33 36.361236 -119.415527 333 38175ft 444kts
06-Jan-18 20:34 36.479084 -119.458415 333 38175ft 444kts
06-Jan-18 20:35 36.597578 -119.501541 333 38175ft 444kts
06-Jan-18 20:36 36.714916 -119.544245 333 38202ft 444kts
06-Jan-18 20:37 36.833394 -119.587359 333 38203ft 444kts
06-Jan-18 20:38 36.951652 -119.630392 333 38203ft 444kts
06-Jan-18 20:39 37.064827 -119.671582 332 38218ft 443kts
06-Jan-18 20:40 37.177999 -119.712769 332 38213ft 443kts
06-Jan-18 20:41 37.295611 -119.755565 333 38214ft 445kts
06-Jan-18 20:42 37.413622 -119.798485 332 38210ft 447kts
06-Jan-18 20:43 37.530673 -119.841042 333 38212ft 444kts
06-Jan-18 20:44 37.649367 -119.884223 333 38234ft 444kts
06-Jan-18 20:45 37.767844 -119.927315 333 38240ft 444kts
06-Jan-18 20:46 37.885797 -119.970205 333 38240ft 444kts
06-Jan-18 20:47 38.004051 -120.013199 333 38240ft 444kts
06-Jan-18 20:48 38.119274 -120.055088 333 38234ft 444kts
06-Jan-18 20:49 38.237929 -120.097007 341 38219ft 454kts
06-Jan-18 20:50 38.365299 -120.109096 345 38234ft 462kts
06-Jan-18 20:51 38.492752 -120.121109 345 38235ft 461kts
06-Jan-18 20:52 38.619945 -120.133338 345 38236ft 461kts
06-Jan-18 20:53 38.747428 -120.145617 345 38236ft 460kts
06-Jan-18 20:54 38.874350 -120.157855 345 38237ft 460kts
06-Jan-18 20:55 39.000934 -120.170057 345 38238ft 460kts
06-Jan-18 20:56 39.124463 -120.181969 345 38258ft 460kts
06-Jan-18 20:57 39.252000 -120.194266 345 38260ft 459kts
06-Jan-18 20:58 39.378024 -120.206417 345 38260ft 458kts
06-Jan-18 20:59 39.504738 -120.218640 345 38261ft 458kts
06-Jan-18 21:00 39.631463 -120.230864 345 38261ft 458kts
06-Jan-18 21:01 39.758077 -120.243078 345 38263ft 458kts
06-Jan-18 21:02 39.884661 -120.255289 345 38262ft 457kts
06-Jan-18 21:03 40.010292 -120.267413 345 38262ft 457kts
06-Jan-18 21:04 40.134389 -120.279387 345 38230ft 457kts
06-Jan-18 21:05 40.261024 -120.291602 345 38230ft 455kts
06-Jan-18 21:06 40.382080 -120.303232 348 38229ft 420kts
06-Jan-18 21:07 40.499596 -120.314633 348 38234ft 427kts
06-Jan-18 21:08 40.617390 -120.325994 348 38233ft 426kts
06-Jan-18 21:09 40.735247 -120.337369 348 38233ft 425kts
06-Jan-18 21:10 40.852474 -120.348686 348 38232ft 425kts
06-Jan-18 21:11 40.969535 -120.359985 348 38231ft 424kts
06-Jan-18 21:12 41.086213 -120.371334 352 38229ft 420kts
06-Jan-18 21:13 41.198852 -120.382110 349 38234ft 424kts
06-Jan-18 21:14 41.315635 -120.393395 349 38234ft 422kts
06-Jan-18 21:15 41.432304 -120.404661 349 38233ft 422kts
06-Jan-18 21:16 41.549231 -120.415951 349 38232ft 421kts
06-Jan-18 21:17 41.665600 -120.427188 349 38232ft 421kts
06-Jan-18 21:18 41.782364 -120.438462 349 38232ft 420kts
06-Jan-18 21:19 41.898265 -120.449652 350 38231ft 421kts
06-Jan-18 21:20 41.994954 -120.458988 350 38230ft 420kts
06-Jan-18 21:21 42.128837 -120.471916 350 38236ft 420kts
06-Jan-18 21:22 42.225765 -120.481275 350 38234ft 420kts
06-Jan-18 21:23 42.361085 -120.494341 350 38234ft 419kts
06-Jan-18 21:24 42.457502 -120.503652 350 38233ft 419kts
06-Jan-18 21:25 42.581625 -120.561890 331 38232ft 406kts
06-Jan-18 21:26 42.666953 -120.616703 331 38237ft 407kts
06-Jan-18 21:27 42.752570 -120.671786 330 38240ft 406kts
06-Jan-18 21:28 42.854009 -120.737138 330 38237ft 405kts
06-Jan-18 21:29 42.955938 -120.802716 330 38236ft 406kts
06-Jan-18 21:30 43.057366 -120.867948 331 38210ft 406kts
06-Jan-18 21:31 43.134675 -120.917655 331 38214ft 406kts
06-Jan-18 21:32 43.255395 -120.995256 331 38212ft 406kts
06-Jan-18 21:33 43.357440 -121.060831 331 38211ft 406kts
06-Jan-18 21:34 43.459311 -121.126277 331 38210ft 406kts
06-Jan-18 21:35 43.561799 -121.192103 331 38208ft 406kts
06-Jan-18 21:36 43.663676 -121.257515 331 38207ft 406kts
06-Jan-18 21:37 43.766261 -121.323365 331 38206ft 406kts
06-Jan-18 21:38 43.868414 -121.388919 332 38205ft 406kts
06-Jan-18 21:39 43.970557 -121.454447 332 38204ft 406kts
06-Jan-18 21:40 44.072343 -121.519726 332 38202ft 406kts
06-Jan-18 21:41 44.158315 -121.574848 332 38208ft 406kts
06-Jan-18 21:42 44.260310 -121.640226 332 38207ft 406kts
06-Jan-18 21:43 44.350750 -121.698271 331 38213ft 406kts
06-Jan-18 21:44 44.453241 -121.763959 331 38212ft 406kts
06-Jan-18 21:45 44.555221 -121.829272 331 38211ft 406kts
06-Jan-18 21:46 44.657604 -121.894820 331 38210ft 406kts
06-Jan-18 21:47 44.760297 -121.960543 331 38209ft 406kts
06-Jan-18 21:48 44.862300 -122.025805 331 38278ft 406kts
06-Jan-18 21:49 44.965031 -122.091511 332 38287ft 406kts
06-Jan-18 21:50 45.067463 -122.157004 332 38286ft 406kts
06-Jan-18 21:51 45.167038 -122.220647 332 38292ft 407kts
06-Jan-18 21:52 45.269879 -122.286359 332 38290ft 406kts
06-Jan-18 21:53 45.372907 -122.352167 332 38289ft 406kts
06-Jan-18 21:54 45.475519 -122.417683 332 38288ft 407kts
06-Jan-18 21:55 45.578714 -122.483568 332 38023ft 406kts
06-Jan-18 21:56 45.679352 -122.547712 331 36994ft 396kts
06-Jan-18 21:57 45.782855 -122.601055 346 35991ft 404kts
06-Jan-18 21:58 45.892816 -122.627492 346 34840ft 407kts
06-Jan-18 21:59 46.002666 -122.654642 345 32835ft 403kts
06-Jan-18 22:00 46.106952 -122.680307 346 30949ft 392kts
06-Jan-18 22:01 46.197831 -122.698020 346 29303ft 384kts
06-Jan-18 22:02 46.302005 -122.718593 346 27421ft 375kts
06-Jan-18 22:03 46.404963 -122.725537 352 25575ft 371kts
06-Jan-18 22:04 46.506310 -122.728932 352 23735ft 362kts
06-Jan-18 22:05 46.604859 -122.732459 352 21970ft 352kts
06-Jan-18 22:06 46.701340 -122.735939 352 20243ft 342kts
06-Jan-18 22:07 46.793856 -122.724450 21 18538ft 353kts
06-Jan-18 22:08 46.872076 -122.636781 32 16461ft 356kts
06-Jan-18 22:09 46.949764 -122.556246 12 14785ft 328kts
06-Jan-18 22:10 47.034456 -122.519613 11 13406ft 309kts
06-Jan-18 22:11 47.110657 -122.493679 1 12186ft 290kts
06-Jan-18 22:12 47.188620 -122.480229 2 10978ft 287kts
06-Jan-18 22:13 47.265627 -122.468492 1 9776ft 277kts
06-Jan-18 22:14 47.337436 -122.457572 2 8657ft 270kts
06-Jan-18 22:15 47.411155 -122.455075 358 7517ft 262kts
06-Jan-18 22:16 47.482709 -122.455319 359 6407ft 258kts
06-Jan-18 22:17 47.551540 -122.463112 351 5695ft 239kts
06-Jan-18 22:18 47.617177 -122.477141 351 4743ft 239kts
06-Jan-18 22:19 47.680716 -122.475620 35 4076ft 223kts
06-Jan-18 22:20 47.692502 -122.400608 94 3984ft 207kts
06-Jan-18 22:21 47.686505 -122.330311 123 3970ft 196kts
06-Jan-18 22:22 47.644433 -122.306643 180 3938ft 183kts
06-Jan-18 22:23 47.599476 -122.306688 180 3114ft 177kts
06-Jan-18 22:24 47.556298 -122.307003 180 2241ft 144kts
06-Jan-18 22:25 47.521226 -122.307295 181 1575ft 133kts
06-Jan-18 22:26 47.485193 -122.307594 181 890ft 132kts
06-Jan-18 22:27 47.454339 -122.307780 180 426ft 44kts
06-Jan-18 22:28 47.450648 -122.306241 173 412ft 8kts
06-Jan-18 22:29 47.447746 -122.304192 131 399ft 14kts
06-Jan-18 22:30 47.446615 -122.303367 224 395ft 0kts
06-Jan-18 22:31 47.446615 -122.303367 224 395ft 0kts
06-Jan-18 22:32 47.446615 -122.303367 224 395ft 0kts
06-Jan-18 22:33 47.446615 -122.303367 224 395ft 0kts

Navigation Log

Ident Type
Flight plan parsing failed, navigation log unavailable